Aviation Digital Data Service (ADDS)

Output produced by METARs form (2058 UTC 29 May 2017)
found at http://www.aviationweather.gov/adds/metars/
 
KBOS 292054Z 04006KT 8SM -RA BKN008 OVC023 10/09 A3010 RMK AO2 RAE21B47 SLP191 P0000 60002 T01000094 53015
KBOS 292006Z 2920/3024 06011KT 6SM -RA BR OVC008 
     FM292200 06008KT 3SM BR OVC008 
     FM300700 06004KT 1SM BR BKN008 
     FM301200 12004KT 1SM BR BKN015 
     FM301400 12005KT P6SM BKN015 
     FM301600 13006KT P6SM BKN020
       
KLGA 292051Z 05009KT 10SM SCT010 BKN019 OVC024 14/11 A3002 RMK AO2 SLP167 T01390111 51014
KLGA 291934Z 2920/3018 06009KT P6SM BKN015 OVC025 
     TEMPO 2920/2924 SCT015 OVC025 
     FM300300 11005KT 5SM -DZ BR BKN009 OVC012 
     FM300700 12006KT 5SM -DZ BR OVC006 
     FM301400 13009KT P6SM OVC015
       
KJFK 292051Z 13006KT 10SM FEW016 SCT024 OVC037 15/13 A3004 RMK AO2 SLP171 SCT V BKN T01500128 52016
KJFK 291934Z 2920/3024 09007KT P6SM BKN015 OVC025 
     TEMPO 2920/2924 SCT015 OVC025 
     FM300300 11005KT 5SM -DZ BR BKN009 OVC012 
     FM300700 12005KT 3SM -DZ BR OVC005 
     FM301400 13006KT 6SM BR OVC015 
     FM301600 14010KT P6SM BKN020
       
KEWR 292051Z VRB04KT 10SM OVC019 16/12 A3003 RMK AO2 SLP167 CIG 017V021 60000 T01560117 52014
KEWR 291934Z 2920/3024 08006KT P6SM BKN015 OVC025 
     TEMPO 2920/2924 SCT015 OVC025 
     FM300400 11004KT 5SM -DZ BR BKN009 OVC012 
     FM300700 13005KT 5SM -DZ BR OVC007 
     FM301400 13006KT P6SM OVC015 
     FM301800 14008KT P6SM BKN020
       
KPHL 292054Z 10007KT 10SM OVC013 18/14 A3000 RMK AO2 SLP160 60000 T01780144 53008 $
KPHL 291942Z 2920/3024 10007KT P6SM OVC012 
     FM292200 12006KT P6SM BKN015 
     FM300200 11005KT 5SM BR OVC010 
     FM300600 12004KT 4SM BR OVC005 
     TEMPO 3008/3011 2SM BR OVC003 
     FM301500 12008KT 5SM BR OVC010
       
KBWI 292054Z 07008KT 10SM SCT024 SCT065 BKN250 24/19 A2995 RMK AO2 SLP139 T02390194 53010
KBWI 291730Z 2918/3024 28004KT P6SM SCT015 BKN035 
     FM300000 13005KT P6SM BKN040 
     FM300200 11005KT P6SM BKN015 
     FM300300 11005KT P6SM BKN008 
     FM300600 11005KT 3SM BR BKN003 
     FM301500 14006KT P6SM OVC010 
     FM302100 15007KT P6SM BKN020
       
KDCA 292052Z 31012KT 10SM FEW065 BKN200 BKN250 28/12 A2994 RMK AO2 SLP139 T02830117 53008
KDCA 292058Z 2921/3018 31010KT P6SM SCT060 BKN200 
     FM300000 36005KT P6SM SCT050 
     FM300200 09005KT P6SM BKN045 
     FM300500 11005KT 4SM BR BKN008 
     FM300900 09005KT 3SM BR OVC003 
     FM301500 14005KT P6SM BKN010 
     FM301700 15006KT P6SM BKN020
       
KIAD 292052Z 28007KT 10SM FEW045 SCT065 BKN210 BKN250 27/13 A2996 RMK AO2 SLP141 T02670128 53011
KIAD 292054Z 2921/3024 29009KT P6SM FEW045 SCT060 
     FM292300 VRB03KT P6SM SCT060 
     FM300600 10004KT 3SM BR BKN040 
     FM301000 11004KT 1 1/2SM BR OVC003 
     FM301500 17005KT P6SM BKN010 
     FM301800 17006KT P6SM BKN025 
     FM302100 17007KT P6SM BKN045
       
KCLT 292052Z 25005KT 10SM SCT055 BKN140 BKN250 29/17 A2997 RMK AO2 SLP141 T02890167 58006
KCLT 291720Z 2918/3018 24004KT P6SM SCT060 
     FM292000 28005KT P6SM VCSH BKN060 
     TEMPO 2922/3002 VRB20G30KT 4SM TSRA BR BKN035CB 
     FM300600 01004KT P6SM SCT040 OVC090 
     FM301000 VRB02KT 5SM BR OVC030 
     FM301500 25005KT P6SM BKN035 
     PROB30 3015/3018 4SM -TSRA OVC025CB
       
KATL 292052Z COR 32003KT 6SM VCTS -RA BR SCT030CB BKN050 BKN100 22/21 A3004 RMK AO2 LTG DSNT ALQDS SLP164 OCNL LTGICCG ALQDS TS ALQDS MOV NE P0011 60011 T02170206 56002
KATL 291937Z 2920/3024 24010KT P6SM BKN050 
     TEMPO 2920/2922 VRB10G25KT 4SM -TSRA BR BKN025CB 
     FM300000 24006KT P6SM VCTS SCT050CB BKN120 
     FM300300 26004KT P6SM BKN050 
     FM301200 25005KT P6SM BKN015 
     FM301600 27009KT P6SM BKN025 
     PROB30 3017/3022 4SM -TSRA BKN020CB 
     FM302200 29006KT P6SM SCT040 BKN150
       
KTPA 292053Z 25009KT 10SM CLR 32/20 A3004 RMK AO2 SLP171 T03220200 58016
KTPA 291720Z 2918/3018 27009KT P6SM SCT035 
     FM300200 VRB03KT P6SM FEW040 
     FM301500 28006KT P6SM FEW035 SCT250
       
KMCO 292053Z 18005KT 10SM SCT060 33/18 A3001 RMK AO2 SLP162 T03280183 56016
KMCO 291727Z 2918/3018 25005KT P6SM SCT050 
     FM292200 12009KT P6SM SCT060 
     FM300200 22004KT P6SM FEW060 SCT250 
     FM301400 25004KT P6SM SCT025
       
KMIA 292053Z COR 13010G18KT 10SM FEW040 FEW250 32/22 A3004 RMK AO2 SLP172 CB DSNT SW-W T03220217 56011 $
KMIA 292056Z 2921/3018 13011KT P6SM FEW035 SCT060 
     FM300000 12007KT P6SM FEW030 
     FM300300 VRB03KT P6SM FEW250 
     FM301600 15007KT P6SM SCT250
       
KFLL 292053Z 11013KT 10SM FEW030 FEW250 31/23 A3003 RMK AO2 SLP168 T03060228 57013
KFLL 292056Z 2921/3018 12010KT P6SM FEW025 
     FM300000 15007KT P6SM FEW030 
     FM300400 VRB05KT P6SM FEW250 
     FM301600 14007KT P6SM SCT250
       
KDTW 292053Z 21013KT 10SM -TSRA SCT055CB BKN090 OVC110 20/13 A2984 RMK AO2 PK WND 21032/2039 WSHFT 2034 LTG DSNT W RAB26 TSB31 SLP103 OCNL LTGIC SE-S TS SE-S MOV NE P0000 60000 T02000128 53009 $
KDTW 292051Z 2921/3024 24015G24KT P6SM VCTS BKN060CB BKN090 
     FM292300 24010KT P6SM SCT070 
     FM300600 26006KT P6SM SCT080 
     FM301500 24014G23KT P6SM BKN060
       
KORD 292051Z 28019G26KT 10SM SCT080 SCT150 24/06 A2982 RMK AO2 PK WND 29032/1958 SLP095 T02390061 58001
KORD 291732Z 2918/3024 27017G27KT P6SM FEW060 SCT090 
     FM300000 26008KT P6SM FEW060 
     FM301600 26013G20KT P6SM BKN050 
     PROB30 3019/3023 6SM -SHRA
       
KMDW 292053Z 28019G28KT 10SM SCT085 SCT150 25/05 A2982 RMK AO2 PK WND 28029/2041 SLP091 T02500050 58003 $
KMDW 291732Z 2918/3018 26017G27KT P6SM FEW060 SCT090 
     FM300000 26008KT P6SM FEW060 
     FM301600 26013G20KT P6SM VCSH BKN050
       
KMSP 292053Z 29014G24KT 10SM SCT038TCU BKN045 BKN070 BKN200 18/08 A2981 RMK AO2 SLP096 TCU ALQDS VCSH 60000 T01780083 50002
KMSP 292048Z 2921/3024 30015G22KT P6SM VCSH SCT035 BKN040 OVC050 
     FM300130 27009KT P6SM SCT040 BKN100 
     FM301300 29010KT P6SM BKN025 
     FM301600 29012G20KT P6SM BKN035
       
KMEM 292054Z 27006KT 10SM SCT060 OVC250 29/17 A2998 RMK AO2 SLP148 T02890167 56016 $
KMEM 291737Z 2918/3018 33005KT P6SM SCT040 BKN250 
     FM300000 VRB03KT P6SM SCT250 
     FM301100 25005KT P6SM SCT100 BKN250
       
KDFW 292053Z 04007KT 10SM FEW050 BKN300 31/09 A3001 RMK AO2 SLP153 T03110089 56019
KDFW 292057Z 2921/3024 07007KT P6SM FEW050 BKN200 
     FM300400 12006KT P6SM SCT300
       
KIAH 292053Z 03009KT 10SM SCT024 OVC034 27/20 A2999 RMK AO2 SLP156 T02670200 55009 $
KIAH 292049Z 2921/3024 33008KT P6SM FEW025 OVC035 
     FM300300 09005KT P6SM SCT025 OVC250 
     FM301000 08007KT P6SM BKN020 
     FM301800 09010KT P6SM BKN035
       
KDEN 292053Z 02008KT 10SM SCT070 BKN110 BKN160 19/06 A3021 RMK AO2 LTG DSNT SE-SW SLP178 T01890056 55007 $
KDEN 291735Z 2918/3024 10007KT P6SM FEW080 SCT110 
     FM292000 06009KT P6SM VCSH SCT070 BKN110 
     TEMPO 2921/2924 VRB15G30KT -TSRA BKN050CB 
     FM300000 10009KT P6SM VCSH SCT070 BKN110 
     FM300300 14007KT P6SM FEW080 BKN140 
     FM300500 20009KT P6SM SCT140 
     FM301600 33005KT P6SM FEW080 
     FM301900 03008KT P6SM FEW070 SCT110
       
KSLC 292054Z VRB04KT 10SM FEW090 27/02 A3009 RMK AO2 SLP141 T02720022 58014
KSLC 291720Z 2918/3024 33008KT P6SM SKC 
     FM300400 15005KT P6SM SKC 
     FM301900 33008KT P6SM FEW090
       
KSEA 292053Z 00000KT 10SM FEW030 FEW250 19/12 A2999 RMK AO2 SLP162 T01940122 58020
KSEA 291739Z 2918/3024 26004KT P6SM OVC007 
     FM291900 26006KT P6SM SCT250 
     FM300000 29006KT P6SM SCT250 
     FM300500 23005KT P6SM SCT250 
     FM301000 19009KT P6SM OVC010
       
KSFO 291956Z 28016G24KT 10SM FEW008 OVC012 14/09 A3001 RMK AO2 SLP161 T01440094
KSFO 291931Z 2920/3024 27017G23KT P6SM OVC009 
     FM292200 27020G26KT P6SM FEW009 SCT012 
     FM300300 27017KT P6SM BKN012 
     FM300600 27014KT P6SM OVC010 
     FM301200 27014KT P6SM OVC007 
     FM301900 28019G24KT P6SM SCT012
       
KLAX 292053Z 25008KT 8SM FEW015 BKN160 BKN250 19/13 A2991 RMK AO2 SLP129 T01890133 58007
KLAX 291720Z 2918/3024 26006KT P6SM OVC010 
     FM291900 27014KT P6SM FEW015 SCT200 
     FM300200 26008KT P6SM FEW010 
     FM300400 25006KT P6SM OVC008 
     FM301500 VRB03KT P6SM OVC010 
     FM301900 27012KT P6SM SCT015
       
KSAN 292051Z 31005KT 10SM SCT010 OVC014 19/14 A2995 RMK AO2 SLP141 T01890139 58003
KSAN 291728Z 2918/3024 28007KT P6SM BKN012 
     FM292100 28009KT P6SM SCT012 SCT200 
     FM300100 28008KT P6SM BKN010 
     FM300300 VRB04KT P6SM OVC010 
     FM301900 25009KT P6SM BKN011 
     FM302100 25009KT P6SM SCT014 SCT200
       
KLAS 291956Z 08007KT 040V110 10SM FEW150 SCT250 35/M10 A2987 RMK AO2 SLP086 T03501100
KLAS 292033Z 2921/3018 09006KT P6SM SKC 
     FM292300 VRB05KT P6SM SKC 
     FM300400 27006KT P6SM SCT250 
     FM301500 07005KT P6SM SCT250
       
KPHX 292051Z 31008KT 280V340 10SM FEW120 BKN250 38/M07 A2976 RMK AO2 SLP056 T03831072 58021
KPHX 292045Z 2921/3018 VRB05KT P6SM BKN250 
     FM292200 28007KT P6SM BKN250 
     FM300800 10007KT P6SM BKN250
       
KSDF 291956Z 24012G19KT 10SM SCT070 BKN300 28/12 A2994 RMK AO2 SLP134 T02830117
KSDF 291721Z 2918/3024 23007KT P6SM SCT070 
     FM300200 VRB03KT P6SM SCT060 
     FM301400 27010KT P6SM SCT080
       
KIND 292054Z 27015G22KT 10SM SCT075 27/10 A2989 RMK AO2 SLP116 T02720100 56008 $
KIND 292026Z 2920/3024 25014G24KT P6SM SCT070 
     FM300000 25011KT P6SM VCTS SCT150CB 
     FM300200 25007KT P6SM SCT120 
     FM301800 26010G18KT P6SM FEW200